createdAt,value
2022-08-29T00:01:11.702Z,31.20
2022-08-29T00:03:40.699Z,31.00
2022-08-29T00:06:07.890Z,31.70
2022-08-29T00:08:34.892Z,31.10
2022-08-29T00:11:01.809Z,31.10
2022-08-29T00:13:28.862Z,31.00
2022-08-29T00:15:55.820Z,31.50
2022-08-29T00:18:22.681Z,31.90
2022-08-29T00:20:49.945Z,32.30
2022-08-29T00:23:16.861Z,32.60
2022-08-29T00:25:43.717Z,32.40
2022-08-29T00:28:11.042Z,31.90
2022-08-29T00:30:38.459Z,31.80
2022-08-29T00:33:05.410Z,31.90
2022-08-29T00:35:34.300Z,32.00
2022-08-29T00:38:01.638Z,32.30
2022-08-29T00:40:31.631Z,32.60
2022-08-29T00:42:58.644Z,32.80
2022-08-29T00:45:26.594Z,32.60
2022-08-29T00:47:56.111Z,32.40
2022-08-29T00:50:26.617Z,31.60
2022-08-29T00:52:55.269Z,31.40
2022-08-29T00:55:23.864Z,31.30
2022-08-29T00:57:55.039Z,31.60
2022-08-29T01:00:22.261Z,31.30
2022-08-29T01:02:49.106Z,31.20
2022-08-29T01:05:17.912Z,30.80
2022-08-29T01:07:44.838Z,30.80
2022-08-29T01:10:31.766Z,30.90
2022-08-29T01:12:59.026Z,30.80
2022-08-29T01:15:26.643Z,31.00
2022-08-29T01:17:54.760Z,30.70
2022-08-29T01:20:30.538Z,31.10
2022-08-29T01:23:03.402Z,31.50
2022-08-29T01:25:32.862Z,30.80
2022-08-29T01:28:03.341Z,30.30
2022-08-29T01:30:30.399Z,30.00
2022-08-29T01:32:58.055Z,30.10
2022-08-29T01:35:25.266Z,30.20
2022-08-29T01:37:52.128Z,30.70
2022-08-29T01:40:19.046Z,31.00
2022-08-29T01:42:46.523Z,30.90
2022-08-29T01:45:13.578Z,31.00
2022-08-29T01:47:40.624Z,31.10
2022-08-29T01:50:11.784Z,31.20
2022-08-29T01:52:38.785Z,32.00
2022-08-29T01:55:05.939Z,31.70
2022-08-29T01:57:32.921Z,31.90
2022-08-29T02:00:00.867Z,32.30
2022-08-29T02:02:28.920Z,32.60
2022-08-29T02:04:59.115Z,33.00
2022-08-29T02:07:26.614Z,33.20
2022-08-29T02:09:53.862Z,33.90
2022-08-29T02:12:21.042Z,33.20
2022-08-29T02:14:48.427Z,32.70
2022-08-29T02:17:15.343Z,32.70
2022-08-29T02:19:42.329Z,33.60
2022-08-29T02:22:09.259Z,34.30
2022-08-29T02:24:36.145Z,35.10
2022-08-29T02:27:03.420Z,35.10
2022-08-29T02:29:31.033Z,35.10
2022-08-29T02:32:04.911Z,34.80
2022-08-29T02:34:33.482Z,34.70
2022-08-29T02:37:00.399Z,34.70
2022-08-29T02:39:27.271Z,34.50
2022-08-29T02:41:54.279Z,35.10
2022-08-29T02:44:21.127Z,35.60
2022-08-29T02:46:48.630Z,36.10
2022-08-29T02:49:17.193Z,35.70
2022-08-29T02:51:45.201Z,35.90
2022-08-29T02:54:12.715Z,36.30
2022-08-29T02:56:40.174Z,36.60
2022-08-29T02:59:08.541Z,36.50
2022-08-29T03:01:38.757Z,36.40
2022-08-29T03:04:06.043Z,36.00
2022-08-29T03:06:33.317Z,35.80
2022-08-29T03:09:00.265Z,35.90
2022-08-29T03:11:28.794Z,35.20
2022-08-29T03:13:57.445Z,35.50
2022-08-29T03:16:25.731Z,35.30
2022-08-29T03:18:52.802Z,35.50
2022-08-29T03:21:21.449Z,34.90
2022-08-29T03:23:49.197Z,35.30
2022-08-29T03:26:16.279Z,34.90
2022-08-29T03:28:43.293Z,33.90
2022-08-29T03:31:10.293Z,33.40
2022-08-29T03:33:37.688Z,33.30
2022-08-29T03:36:11.146Z,33.60
2022-08-29T03:38:41.784Z,33.20
2022-08-29T03:41:09.042Z,33.80
2022-08-29T03:43:35.849Z,34.50
2022-08-29T03:46:02.834Z,34.40
2022-08-29T03:48:29.752Z,34.30
2022-08-29T03:50:56.740Z,34.60
2022-08-29T03:53:23.625Z,34.50
2022-08-29T03:55:51.718Z,34.90
2022-08-29T03:58:19.320Z,35.10
2022-08-29T04:00:47.509Z,35.20
2022-08-29T04:03:14.460Z,35.30
2022-08-29T04:05:41.703Z,35.60
2022-08-29T04:08:09.131Z,36.60
2022-08-29T04:10:39.703Z,36.50
2022-08-29T04:13:07.118Z,36.00
2022-08-29T04:15:34.908Z,35.50
2022-08-29T04:18:02.617Z,35.30
2022-08-29T04:20:31.354Z,35.40
2022-08-29T04:22:59.833Z,35.70
2022-08-29T04:25:27.839Z,35.50
2022-08-29T04:27:55.491Z,35.40
2022-08-29T04:30:24.834Z,34.80
2022-08-29T04:32:51.672Z,34.30
2022-08-29T04:35:18.531Z,34.20
2022-08-29T04:37:45.584Z,34.60
2022-08-29T04:40:16.017Z,35.10
2022-08-29T04:42:43.746Z,34.80
2022-08-29T04:45:15.020Z,34.40
2022-08-29T04:47:42.961Z,34.60
2022-08-29T04:50:11.542Z,34.00
2022-08-29T04:52:39.214Z,34.70
2022-08-29T04:55:07.507Z,34.70
2022-08-29T04:57:34.746Z,35.20
2022-08-29T05:00:02.160Z,35.00
2022-08-29T05:02:29.078Z,34.40
2022-08-29T05:04:56.947Z,34.30
2022-08-29T05:07:26.123Z,34.00
2022-08-29T05:10:02.602Z,33.10
2022-08-29T05:12:29.981Z,32.80
2022-08-29T05:14:57.464Z,33.00
2022-08-29T05:17:24.712Z,32.70
2022-08-29T05:19:51.765Z,32.60
2022-08-29T05:22:20.265Z,33.00
2022-08-29T05:24:48.947Z,33.10
2022-08-29T05:27:17.905Z,33.40
2022-08-29T05:29:45.538Z,32.50
2022-08-29T05:32:14.889Z,32.60
2022-08-29T05:34:42.697Z,32.90
2022-08-29T05:37:12.041Z,32.90
2022-08-29T05:39:39.366Z,32.80
2022-08-29T05:42:07.322Z,32.40
2022-08-29T05:44:35.572Z,32.70
2022-08-29T05:47:09.986Z,33.50
2022-08-29T05:49:37.672Z,33.50
2022-08-29T05:52:05.139Z,33.80
2022-08-29T05:54:33.733Z,33.40
2022-08-29T05:57:00.653Z,33.50
2022-08-29T05:59:27.530Z,34.00
2022-08-29T06:01:54.338Z,33.90
2022-08-29T06:04:21.193Z,33.20
2022-08-29T06:06:48.075Z,32.70
2022-08-29T06:09:14.924Z,32.00
2022-08-29T06:11:41.886Z,31.60
2022-08-29T06:14:08.837Z,31.70
2022-08-29T06:16:35.685Z,31.50
2022-08-29T06:19:02.589Z,31.00
2022-08-29T06:21:29.556Z,31.20
2022-08-29T06:23:56.442Z,30.70
2022-08-29T06:26:23.337Z,30.50
2022-08-29T06:28:50.237Z,30.20
2022-08-29T06:31:29.321Z,30.40
2022-08-29T06:34:01.718Z,30.50
2022-08-29T06:36:29.614Z,29.90
2022-08-29T06:38:57.806Z,29.80
2022-08-29T06:41:25.665Z,30.00
2022-08-29T06:43:52.712Z,30.50
2022-08-29T06:46:22.832Z,30.70
2022-08-29T06:48:50.244Z,31.00
2022-08-29T06:51:17.330Z,31.50
2022-08-29T06:53:44.205Z,31.20
2022-08-29T06:56:11.897Z,31.30
2022-08-29T06:58:39.051Z,31.30
2022-08-29T07:01:13.298Z,31.60
2022-08-29T07:03:41.267Z,31.40
2022-08-29T07:06:08.856Z,31.40
2022-08-29T07:08:38.817Z,31.50
2022-08-29T07:11:07.877Z,32.00
2022-08-29T07:13:35.336Z,31.80
2022-08-29T07:16:02.382Z,31.90
2022-08-29T07:18:29.391Z,32.10
2022-08-29T07:20:56.285Z,32.10
2022-08-29T07:23:23.222Z,31.80
2022-08-29T07:25:50.056Z,31.40
2022-08-29T07:28:17.111Z,31.20
2022-08-29T07:30:44.219Z,32.00
2022-08-29T07:33:11.142Z,32.60
2022-08-29T07:35:38.121Z,32.60
2022-08-29T07:38:05.815Z,32.50
2022-08-29T07:40:32.761Z,33.10
2022-08-29T07:42:59.681Z,33.30
2022-08-29T07:45:27.382Z,32.70
2022-08-29T07:47:54.273Z,32.90
2022-08-29T07:50:21.195Z,33.20
2022-08-29T07:52:48.613Z,33.50
2022-08-29T07:55:15.543Z,33.30
2022-08-29T07:57:44.579Z,34.00
2022-08-29T08:00:12.407Z,34.80
2022-08-29T08:02:39.402Z,34.70
2022-08-29T08:05:07.058Z,34.80
2022-08-29T08:07:35.396Z,35.70
2022-08-29T08:10:02.990Z,35.40
2022-08-29T08:12:30.139Z,35.00
2022-08-29T08:14:57.265Z,34.40
2022-08-29T08:17:24.423Z,34.10
2022-08-29T08:19:51.318Z,34.30
2022-08-29T08:22:18.188Z,35.00
2022-08-29T08:24:45.233Z,34.80
2022-08-29T08:27:12.144Z,34.50
2022-08-29T08:29:39.106Z,35.00
2022-08-29T08:32:06.023Z,35.40
2022-08-29T08:34:35.732Z,34.80
2022-08-29T08:37:07.204Z,34.10
2022-08-29T08:39:34.214Z,34.50
2022-08-29T08:42:05.727Z,35.10
2022-08-29T08:44:40.789Z,35.10
2022-08-29T08:47:09.804Z,35.10
2022-08-29T08:49:43.864Z,34.50
2022-08-29T08:52:12.505Z,35.60
2022-08-29T08:54:58.141Z,35.00
2022-08-29T08:57:30.263Z,34.60
2022-08-29T08:59:58.683Z,33.80
2022-08-29T09:02:28.341Z,32.10
2022-08-29T09:05:03.935Z,31.00
2022-08-29T09:07:49.510Z,30.70
2022-08-29T09:10:30.435Z,30.90
2022-08-29T09:13:03.468Z,30.60
2022-08-29T09:15:41.273Z,30.00
2022-08-29T09:18:13.605Z,30.20
2022-08-29T09:20:41.308Z,30.40
2022-08-29T09:23:27.392Z,30.20
2022-08-29T09:25:54.403Z,30.60
2022-08-29T09:28:21.346Z,32.00
2022-08-29T09:31:07.177Z,32.30
2022-08-29T09:33:43.068Z,32.20
2022-08-29T09:36:14.626Z,32.30
2022-08-29T09:38:41.602Z,32.30
2022-08-29T09:41:08.649Z,32.50
2022-08-29T09:43:44.389Z,33.40
2022-08-29T09:46:11.539Z,33.20
2022-08-29T09:48:46.639Z,33.90
2022-08-29T09:51:23.678Z,33.90
2022-08-29T09:53:51.867Z,32.80
2022-08-29T09:56:24.133Z,31.80
2022-08-29T09:58:59.411Z,31.60
2022-08-29T10:01:28.269Z,31.70
2022-08-29T10:04:00.926Z,32.30
2022-08-29T10:06:30.011Z,33.00
2022-08-29T10:08:59.892Z,33.10
2022-08-29T10:11:46.840Z,32.50
2022-08-29T10:14:16.508Z,32.40
2022-08-29T10:16:50.342Z,33.90
2022-08-29T10:19:22.659Z,34.40
2022-08-29T10:22:18.836Z,34.60
2022-08-29T10:24:54.441Z,34.40
2022-08-29T10:27:27.806Z,34.00
2022-08-29T10:30:06.562Z,34.20
2022-08-29T10:32:40.136Z,34.20
2022-08-29T10:35:28.296Z,33.80
2022-08-29T10:38:14.143Z,33.20
2022-08-29T10:41:05.301Z,32.30
2022-08-29T10:43:35.274Z,31.10
2022-08-29T10:46:11.149Z,30.70
2022-08-29T10:48:46.261Z,31.00
2022-08-29T10:51:21.007Z,30.60
2022-08-29T10:53:51.944Z,31.10
2022-08-29T10:56:27.833Z,32.60
2022-08-29T10:59:06.880Z,32.70
2022-08-29T11:01:40.808Z,31.90
2022-08-29T11:04:07.846Z,32.00
2022-08-29T11:06:39.085Z,31.40
2022-08-29T11:09:24.139Z,30.90
2022-08-29T11:12:04.438Z,31.40
2022-08-29T11:14:34.010Z,31.10
2022-08-29T11:17:04.278Z,30.40
2022-08-29T11:19:34.665Z,30.00
2022-08-29T11:22:16.179Z,29.20
2022-08-29T11:24:47.050Z,28.10
2022-08-29T11:27:14.245Z,27.00
2022-08-29T11:29:43.847Z,26.80
2022-08-29T11:32:19.600Z,25.80
2022-08-29T11:35:12.449Z,24.90
2022-08-29T11:37:50.235Z,24.00
2022-08-29T11:43:25.241Z,23.80
2022-08-29T11:46:02.363Z,24.40
2022-08-29T11:48:32.252Z,24.50
2022-08-29T11:50:59.467Z,24.80
2022-08-29T11:53:35.339Z,24.70
2022-08-29T11:56:14.300Z,24.50
2022-08-29T11:58:51.656Z,24.30
2022-08-29T12:01:24.480Z,24.00
2022-08-29T12:03:55.628Z,24.00
2022-08-29T12:06:22.473Z,23.60
2022-08-29T12:08:55.402Z,23.40
2022-08-29T12:11:22.946Z,23.30
2022-08-29T12:13:50.109Z,23.10
2022-08-29T12:16:23.600Z,23.30
2022-08-29T12:18:54.885Z,23.40
2022-08-29T12:21:37.069Z,23.60
2022-08-29T12:24:05.089Z,23.60
2022-08-29T12:26:43.706Z,23.90
2022-08-29T12:29:22.445Z,23.70
2022-08-29T12:32:18.215Z,23.80
2022-08-29T12:34:41.935Z,23.70
2022-08-29T12:37:37.306Z,23.80
2022-08-29T12:40:04.246Z,24.30
2022-08-29T12:42:49.660Z,23.60
2022-08-29T12:45:27.620Z,23.80
2022-08-29T12:47:57.468Z,23.90
2022-08-29T12:50:25.585Z,23.80
2022-08-29T12:53:06.586Z,24.00
2022-08-29T12:55:42.347Z,24.10
2022-08-29T12:58:10.298Z,24.30
2022-08-29T13:00:37.535Z,24.70
2022-08-29T13:03:14.872Z,25.20
2022-08-29T13:05:42.587Z,25.00
2022-08-29T13:08:13.344Z,24.70
2022-08-29T13:10:57.927Z,24.50
2022-08-29T13:13:25.538Z,24.80
2022-08-29T13:15:53.691Z,24.60
2022-08-29T13:18:21.552Z,24.90
2022-08-29T13:21:08.644Z,24.90
2022-08-29T13:23:48.589Z,24.80
2022-08-29T13:26:15.436Z,25.20
2022-08-29T13:28:44.002Z,25.00
2022-08-29T13:31:16.917Z,25.10
2022-08-29T13:33:49.878Z,25.90
2022-08-29T13:36:35.576Z,25.50
2022-08-29T13:39:17.675Z,25.60
2022-08-29T13:41:46.606Z,26.20
2022-08-29T13:44:21.091Z,25.10
2022-08-29T13:46:52.467Z,25.10
2022-08-29T13:49:20.111Z,24.90
2022-08-29T13:51:46.967Z,24.80
2022-08-29T13:54:14.475Z,24.40
2022-08-29T13:56:41.380Z,24.10
2022-08-29T13:59:08.977Z,24.70
2022-08-29T14:04:40.302Z,24.70
2022-08-29T14:07:13.349Z,24.30
2022-08-29T14:09:42.025Z,23.70
2022-08-29T14:12:12.719Z,23.50
2022-08-29T14:14:39.790Z,23.50
2022-08-29T14:17:06.761Z,23.00
2022-08-29T14:19:38.332Z,23.20
2022-08-29T14:22:05.255Z,23.80
2022-08-29T14:24:33.507Z,24.00
2022-08-29T14:27:02.427Z,24.30
2022-08-29T14:29:30.643Z,24.80
2022-08-29T14:31:58.388Z,25.20
2022-08-29T14:34:25.527Z,25.40
2022-08-29T14:36:57.728Z,25.90
2022-08-29T14:39:26.238Z,26.30
2022-08-29T14:41:54.028Z,26.30
2022-08-29T14:44:22.411Z,26.20
2022-08-29T14:46:49.973Z,25.90
2022-08-29T14:49:16.944Z,25.50
2022-08-29T14:51:44.603Z,25.20
2022-08-29T14:54:12.045Z,25.40
2022-08-29T14:56:49.285Z,25.70
2022-08-29T14:59:17.516Z,25.80
2022-08-29T15:01:45.367Z,26.00
2022-08-29T15:04:14.584Z,26.10
2022-08-29T15:06:41.497Z,26.40
2022-08-29T15:09:08.346Z,26.60
2022-08-29T15:11:35.282Z,26.70
2022-08-29T15:14:04.525Z,26.90
2022-08-29T15:16:32.149Z,27.00
2022-08-29T15:19:37.551Z,27.20
2022-08-29T15:21:45.934Z,27.40
2022-08-29T15:24:12.773Z,27.50
2022-08-29T15:26:39.704Z,27.50
2022-08-29T15:29:08.670Z,27.60
2022-08-29T15:31:35.603Z,27.90
2022-08-29T15:34:02.551Z,28.00
2022-08-29T15:36:29.853Z,28.20
2022-08-29T15:38:56.669Z,28.50
2022-08-29T15:41:23.542Z,28.60
2022-08-29T15:43:50.425Z,28.80
2022-08-29T15:46:18.499Z,28.80
2022-08-29T15:48:50.610Z,28.70
2022-08-29T15:51:17.669Z,28.90
2022-08-29T15:53:44.542Z,29.00
2022-08-29T15:56:11.484Z,28.90
2022-08-29T15:58:38.456Z,28.70
2022-08-29T16:01:05.821Z,28.80
2022-08-29T16:03:35.467Z,28.70
2022-08-29T16:06:02.699Z,29.00
2022-08-29T16:08:33.753Z,28.70
2022-08-29T16:11:03.336Z,28.70
2022-08-29T16:13:33.168Z,28.60
2022-08-29T16:16:03.224Z,28.70
2022-08-29T16:18:35.690Z,29.20
2022-08-29T16:21:04.899Z,29.50
2022-08-29T16:23:31.968Z,29.70
2022-08-29T16:26:03.326Z,29.60
2022-08-29T16:28:31.848Z,29.60
2022-08-29T16:31:01.707Z,29.60
2022-08-29T16:33:28.674Z,29.80
2022-08-29T16:35:55.613Z,29.70
2022-08-29T16:38:22.501Z,29.70
2022-08-29T16:40:56.236Z,29.80
2022-08-29T16:43:23.107Z,29.80
2022-08-29T16:45:50.038Z,30.60
2022-08-29T16:48:17.572Z,30.10
2022-08-29T16:50:45.205Z,30.20
2022-08-29T16:53:12.035Z,30.20
2022-08-29T16:55:38.836Z,30.30
2022-08-29T16:58:24.460Z,30.50
2022-08-29T17:00:51.368Z,30.90
2022-08-29T17:03:20.255Z,30.80
2022-08-29T17:05:47.632Z,30.60
2022-08-29T17:08:14.441Z,30.50
2022-08-29T17:10:42.108Z,30.10
2022-08-29T17:13:14.165Z,30.40
2022-08-29T17:15:41.461Z,30.50
2022-08-29T17:18:08.456Z,30.60
2022-08-29T17:20:38.115Z,30.50
2022-08-29T17:23:10.600Z,30.60
2022-08-29T17:25:44.978Z,30.60
2022-08-29T17:28:18.017Z,30.50
2022-08-29T17:30:49.074Z,30.80
2022-08-29T17:33:19.188Z,30.80
2022-08-29T17:35:46.566Z,30.90
2022-08-29T17:38:17.631Z,30.70
2022-08-29T17:40:46.192Z,31.00
2022-08-29T17:43:15.285Z,30.50
2022-08-29T17:45:42.415Z,31.80
2022-08-29T17:48:10.448Z,31.10
2022-08-29T17:50:37.695Z,30.90
2022-08-29T17:53:04.799Z,31.10
2022-08-29T17:55:31.656Z,30.80
2022-08-29T17:57:59.352Z,30.50
2022-08-29T18:00:34.346Z,30.70
2022-08-29T18:03:01.369Z,30.90
2022-08-29T18:05:28.516Z,31.20
2022-08-29T18:07:58.798Z,31.60
2022-08-29T18:10:25.801Z,31.40
2022-08-29T18:12:52.711Z,31.60
2022-08-29T18:15:19.836Z,31.10
2022-08-29T18:17:51.948Z,31.40
2022-08-29T18:20:23.398Z,31.30
2022-08-29T18:22:50.307Z,31.00
2022-08-29T18:25:22.261Z,31.20
2022-08-29T18:27:50.475Z,31.30
2022-08-29T18:30:17.500Z,31.40
2022-08-29T18:32:44.408Z,31.20
2022-08-29T18:35:15.310Z,31.00
2022-08-29T18:37:42.215Z,31.10
2022-08-29T18:40:09.580Z,30.90
2022-08-29T18:42:40.826Z,30.60
2022-08-29T18:45:08.692Z,30.70
2022-08-29T18:47:36.823Z,30.50
2022-08-29T18:50:24.778Z,30.90
2022-08-29T18:52:52.824Z,30.20
2022-08-29T18:55:20.529Z,30.60
2022-08-29T18:57:51.093Z,30.80
2022-08-29T19:00:18.149Z,30.60
2022-08-29T19:02:45.119Z,30.60
2022-08-29T19:05:12.218Z,31.10
2022-08-29T19:07:40.234Z,31.40
2022-08-29T19:10:07.700Z,31.30
2022-08-29T19:12:34.713Z,31.10
2022-08-29T19:15:04.315Z,31.60
2022-08-29T19:17:34.252Z,31.30
2022-08-29T19:20:19.880Z,31.90
2022-08-29T19:22:52.491Z,32.30
2022-08-29T19:25:19.630Z,32.00
2022-08-29T19:27:46.504Z,31.40
2022-08-29T19:30:14.258Z,31.10
2022-08-29T19:32:41.135Z,30.80
2022-08-29T19:35:09.483Z,30.40
2022-08-29T19:37:36.525Z,30.40
2022-08-29T19:40:07.446Z,30.90
2022-08-29T19:42:34.490Z,30.60
2022-08-29T19:45:02.321Z,30.60
2022-08-29T19:47:32.933Z,30.40
2022-08-29T19:50:00.012Z,30.40
2022-08-29T19:52:29.516Z,30.60
2022-08-29T19:55:00.232Z,30.10
2022-08-29T19:57:30.376Z,30.10
2022-08-29T19:59:57.248Z,30.00
2022-08-29T20:02:28.465Z,30.00
2022-08-29T20:04:55.896Z,30.20
2022-08-29T20:07:25.463Z,30.60
2022-08-29T20:10:00.970Z,30.60
2022-08-29T20:12:29.279Z,30.80
2022-08-29T20:14:56.730Z,30.80
2022-08-29T20:17:26.758Z,30.70
2022-08-29T20:19:57.433Z,30.80
2022-08-29T20:22:24.367Z,30.60
2022-08-29T20:24:51.394Z,30.80
2022-08-29T20:27:18.327Z,30.50
2022-08-29T20:29:45.227Z,30.20
2022-08-29T20:32:12.350Z,30.30
2022-08-29T20:34:39.332Z,30.10
2022-08-29T20:37:08.896Z,30.00
2022-08-29T20:39:42.962Z,30.00
2022-08-29T20:42:10.075Z,30.20
2022-08-29T20:44:39.097Z,30.40
2022-08-29T20:47:06.540Z,30.30
2022-08-29T20:49:33.901Z,30.20
2022-08-29T20:52:01.660Z,30.20
2022-08-29T20:54:29.065Z,30.50
2022-08-29T20:56:56.096Z,30.30
2022-08-29T20:59:26.335Z,30.30
2022-08-29T21:01:55.701Z,30.00
2022-08-29T21:04:41.692Z,30.00
2022-08-29T21:07:09.720Z,29.90
2022-08-29T21:09:37.482Z,30.10
2022-08-29T21:12:04.588Z,30.10
2022-08-29T21:14:32.634Z,30.20
2022-08-29T21:16:59.793Z,30.30
2022-08-29T21:19:30.486Z,30.60
2022-08-29T21:21:58.490Z,30.50
2022-08-29T21:24:26.517Z,30.70
2022-08-29T21:26:53.740Z,30.50
2022-08-29T21:29:20.932Z,30.10
2022-08-29T21:31:48.268Z,29.80
2022-08-29T21:34:16.056Z,29.70
2022-08-29T21:36:43.249Z,29.70
2022-08-29T21:39:11.364Z,29.70
2022-08-29T21:41:40.051Z,29.80
2022-08-29T21:44:07.649Z,30.20
2022-08-29T21:46:36.119Z,30.20
2022-08-29T21:51:46.074Z,30.10
2022-08-29T21:54:15.688Z,30.10
2022-08-29T21:56:43.140Z,30.10
2022-08-29T21:59:10.054Z,30.10
2022-08-29T22:01:39.948Z,30.00
2022-08-29T22:04:08.403Z,29.90
2022-08-29T22:06:36.487Z,30.00
2022-08-29T22:09:04.034Z,29.80
2022-08-29T22:11:37.450Z,29.80
2022-08-29T22:14:05.772Z,29.80
2022-08-29T22:16:32.797Z,29.80
2022-08-29T22:19:04.727Z,29.80
2022-08-29T22:21:33.453Z,29.80
2022-08-29T22:24:00.843Z,29.80
2022-08-29T22:26:27.675Z,29.70
2022-08-29T22:28:54.580Z,29.70
2022-08-29T22:31:21.942Z,29.80
2022-08-29T22:33:49.004Z,29.90
2022-08-29T22:36:16.659Z,30.10
2022-08-29T22:38:45.474Z,29.80
2022-08-29T22:41:13.631Z,29.80
2022-08-29T22:43:40.579Z,29.80
2022-08-29T22:46:14.896Z,29.60
2022-08-29T22:48:42.557Z,29.80
2022-08-29T22:51:17.012Z,29.80
2022-08-29T22:54:04.449Z,29.70
2022-08-29T22:56:32.227Z,29.90
2022-08-29T22:59:03.691Z,30.00
2022-08-29T23:01:31.613Z,30.00
2022-08-29T23:03:59.051Z,29.90
2022-08-29T23:06:26.514Z,29.70
2022-08-29T23:08:53.810Z,30.10
2022-08-29T23:11:21.008Z,30.20
2022-08-29T23:13:48.153Z,30.20
2022-08-29T23:16:16.943Z,30.20
2022-08-29T23:18:43.852Z,30.60
2022-08-29T23:21:10.801Z,30.30
2022-08-29T23:23:39.037Z,30.10
2022-08-29T23:26:06.307Z,29.90
2022-08-29T23:28:34.389Z,29.90
2022-08-29T23:31:05.099Z,29.80
2022-08-29T23:33:32.175Z,29.80
2022-08-29T23:35:59.045Z,29.70
2022-08-29T23:38:25.952Z,29.60
2022-08-29T23:40:52.979Z,29.40
2022-08-29T23:43:21.268Z,29.40
2022-08-29T23:45:51.470Z,29.30
2022-08-29T23:48:18.386Z,29.50
2022-08-29T23:50:50.480Z,29.50
2022-08-29T23:53:17.587Z,29.40
2022-08-29T23:55:44.556Z,29.30
2022-08-29T23:58:11.513Z,29.20
